Time;durP1;ratioP1;P1;durP2;ratioP2;P2;SDS_P1;SDS_P2;PMS_P1;PMS_P2;Temp;Humidity;BMP_temperature;BMP_pressure;BME280_temperature;BME280_humidity;BME280_pressure;Samples;Min_cycle;Max_cycle;Signal;HPM_P1;HPM_P2
2021/11/09 00:01:55;;;;;;;13.55;9.15;;;;;;;10.65;69.62;95793.09;5029777;28;20025;-76
2021/11/09 00:04:23;;;;;;;15.88;9.82;;;;;;;10.63;69.68;95787.06;5035016;28;20049;-75
2021/11/09 00:07:00;;;;;;;15.85;9.57;;;;;;;10.63;69.56;95776.34;5032793;28;20045;-76
2021/11/09 00:09:29;;;;;;;15.93;9.27;;;;;;;10.65;69.57;95785.06;5034905;28;20049;-73
2021/11/09 00:11:54;;;;;;;14.93;9.77;;;;;;;10.83;68.64;95784.03;5035653;28;20472;-75
2021/11/09 00:14:19;;;;;;;13.50;8.65;;;;;;;10.81;68.41;95784.22;5029508;28;20088;-75
2021/11/09 00:16:45;;;;;;;15.10;9.70;;;;;;;10.82;68.21;95782.34;5035899;28;20025;-76
2021/11/09 00:19:10;;;;;;;13.57;8.77;;;;;;;10.84;67.96;95785.69;5047787;28;20036;-76
2021/11/09 00:21:36;;;;;;;14.48;8.73;;;;;;;10.87;67.94;95794.25;5040191;28;20051;-76
2021/11/09 00:24:03;;;;;;;13.98;8.40;;;;;;;10.83;67.74;95782.16;5037403;28;20064;-76
2021/11/09 00:26:29;;;;;;;14.15;8.45;;;;;;;10.91;67.67;95772.44;5043788;28;20056;-75
2021/11/09 00:28:55;;;;;;;14.38;8.23;;;;;;;10.88;67.57;95757.53;5036679;28;20063;-76
2021/11/09 00:31:20;;;;;;;15.48;8.25;;;;;;;10.82;67.67;95747.47;5027486;28;20053;-78
2021/11/09 00:33:46;;;;;;;15.15;8.80;;;;;;;10.79;67.83;95748.66;5046812;28;20021;-74
2021/11/09 00:36:11;;;;;;;13.48;9.25;;;;;;;10.76;68.29;95751.69;5044826;28;20025;-77
2021/11/09 00:38:37;;;;;;;14.10;9.13;;;;;;;10.69;68.50;95766.78;5043076;28;20025;-76
2021/11/09 00:41:03;;;;;;;13.93;9.27;;;;;;;10.68;68.03;95773.16;5036856;28;20415;-76
2021/11/09 00:43:28;;;;;;;13.45;8.45;;;;;;;10.67;67.91;95777.69;5039772;28;20128;-76
2021/11/09 00:45:53;;;;;;;16.75;9.68;;;;;;;10.64;68.40;95772.63;5038889;28;20423;-75
2021/11/09 00:48:19;;;;;;;14.98;9.77;;;;;;;10.63;68.35;95779.03;5047168;28;20033;-76
2021/11/09 00:50:46;;;;;;;16.63;9.23;;;;;;;10.58;68.52;95774.16;5046612;28;20507;-76
2021/11/09 00:53:17;;;;;;;14.98;9.05;;;;;;;10.57;68.48;95768.97;5045516;28;20140;-76
2021/11/09 00:55:43;;;;;;;16.48;9.88;;;;;;;10.50;68.35;95756.25;5043101;28;20033;-76
2021/11/09 00:58:08;;;;;;;14.80;9.35;;;;;;;10.46;68.85;95754.88;5045273;28;20540;-74
2021/11/09 01:00:34;;;;;;;20.00;10.57;;;;;;;10.41;69.05;95754.53;5045518;28;20029;-74
2021/11/09 01:03:01;;;;;;;16.17;9.95;;;;;;;10.40;68.94;95763.56;5045287;28;20055;-76
2021/11/09 01:05:27;;;;;;;17.90;9.90;;;;;;;10.37;69.08;95762.06;5037587;28;20037;-77
2021/11/09 01:07:57;;;;;;;14.75;9.77;;;;;;;10.33;68.75;95771.47;5046322;28;20025;-75
2021/11/09 01:10:28;;;;;;;14.65;9.20;;;;;;;10.32;68.80;95782.34;5046609;28;20040;-76
2021/11/09 01:12:54;;;;;;;18.55;9.95;;;;;;;10.30;68.63;95782.50;5045138;28;20028;-76
2021/11/09 01:15:19;;;;;;;19.55;10.95;;;;;;;10.25;68.95;95784.88;5028066;28;20036;-75
2021/11/09 01:17:45;;;;;;;17.38;10.45;;;;;;;10.20;69.19;95780.00;5045084;28;20021;-74
2021/11/09 01:20:12;;;;;;;19.08;11.10;;;;;;;10.13;69.00;95781.66;5045576;28;20037;-79
2021/11/09 01:22:38;;;;;;;17.45;10.38;;;;;;;10.04;69.93;95779.97;5045885;28;20035;-76
2021/11/09 01:25:04;;;;;;;17.52;10.65;;;;;;;9.99;69.67;95778.63;5045593;28;20018;-78
2021/11/09 01:27:31;;;;;;;16.45;10.75;;;;;;;9.99;69.63;95789.34;5044172;28;20017;-77
2021/11/09 01:29:56;;;;;;;19.25;10.27;;;;;;;9.93;70.14;95792.66;5045611;28;20037;-76
2021/11/09 01:32:22;;;;;;;16.55;9.55;;;;;;;9.89;69.88;95794.84;5045676;28;20032;-75
2021/11/09 01:34:47;;;;;;;15.38;10.15;;;;;;;9.80;70.55;95800.34;5045301;28;20040;-76
2021/11/09 01:37:13;;;;;;;16.70;10.55;;;;;;;9.72;70.86;95803.84;5045108;28;20494;-74
2021/11/09 01:39:38;;;;;;;16.08;10.35;;;;;;;9.72;70.54;95807.34;5045453;28;20028;-74
2021/11/09 01:42:04;;;;;;;15.38;9.95;;;;;;;9.66;71.17;95813.34;5045619;28;20028;-75
2021/11/09 01:44:29;;;;;;;16.42;10.00;;;;;;;9.64;70.72;95816.19;5045771;28;20056;-75
2021/11/09 01:46:55;;;;;;;16.92;10.02;;;;;;;9.58;71.47;95816.84;5044771;28;20365;-76
2021/11/09 01:49:20;;;;;;;16.70;10.05;;;;;;;9.63;70.62;95819.03;5045327;28;20028;-75
2021/11/09 01:51:46;;;;;;;16.23;8.82;;;;;;;9.64;70.98;95821.56;5046401;28;20083;-75
2021/11/09 01:54:11;;;;;;;16.05;9.93;;;;;;;9.66;70.90;95818.72;5046713;28;20032;-76
2021/11/09 01:56:37;;;;;;;15.73;9.50;;;;;;;9.72;70.52;95820.75;5045098;28;20029;-76
2021/11/09 01:59:03;;;;;;;14.32;8.82;;;;;;;9.70;71.14;95814.72;5047028;28;20479;-78
2021/11/09 02:01:29;;;;;;;17.67;10.05;;;;;;;9.73;70.92;95819.75;5046638;28;20455;-77
2021/11/09 02:03:56;;;;;;;15.40;9.95;;;;;;;9.79;70.50;95828.13;5045405;28;20032;-77
2021/11/09 02:06:22;;;;;;;14.00;9.35;;;;;;;9.75;71.17;95830.31;5046921;28;20029;-77
2021/11/09 02:08:47;;;;;;;14.45;9.15;;;;;;;9.79;70.73;95823.63;5046633;28;20025;-76
2021/11/09 02:11:12;;;;;;;14.48;8.82;;;;;;;9.68;71.48;95826.59;5045178;28;20033;-76
2021/11/09 02:13:39;;;;;;;11.60;7.45;;;;;;;9.67;71.43;95828.44;5045165;28;20055;-74
2021/11/09 02:16:04;;;;;;;11.43;7.97;;;;;;;9.60;71.27;95838.97;5046301;28;20031;-74
2021/11/09 02:18:31;;;;;;;12.20;8.15;;;;;;;9.54;71.45;95839.59;5044836;28;20032;-75
2021/11/09 02:21:14;;;;;;;11.68;7.75;;;;;;;9.46;72.00;95829.66;5046358;28;20021;-75
2021/11/09 02:23:42;;;;;;;11.48;7.43;;;;;;;9.49;71.80;95832.06;5046409;28;20037;-75
2021/11/09 02:26:09;;;;;;;11.13;7.70;;;;;;;9.48;72.14;95821.50;5044935;28;20051;-74
2021/11/09 02:28:34;;;;;;;13.32;8.35;;;;;;;9.47;71.80;95826.00;5046332;28;20171;-74
2021/11/09 02:31:00;;;;;;;11.75;7.88;;;;;;;9.52;71.69;95833.56;5045706;28;20120;-75
2021/11/09 02:33:25;;;;;;;12.02;7.57;;;;;;;9.53;71.67;95832.53;5044795;28;20041;-75
2021/11/09 02:35:51;;;;;;;12.25;7.63;;;;;;;9.52;71.54;95845.13;5045833;28;20071;-74
2021/11/09 02:38:17;;;;;;;11.48;7.47;;;;;;;9.49;71.28;95834.72;5046000;28;20021;-75
2021/11/09 02:40:43;;;;;;;12.70;8.23;;;;;;;9.47;71.53;95836.72;5011816;28;20036;-74
2021/11/09 02:43:10;;;;;;;13.18;7.60;;;;;;;9.38;71.90;95837.69;5045771;28;20079;-75
2021/11/09 02:48:23;;;;;;;12.23;7.97;;;;;;;9.33;72.18;95842.66;5045592;28;20128;-75
2021/11/09 02:50:54;;;;;;;11.55;7.53;;;;;;;9.33;72.12;95848.03;5044764;28;20040;-75
2021/11/09 02:53:33;;;;;;;12.02;7.90;;;;;;;9.29;72.36;95850.16;5045591;28;20029;-75
2021/11/09 02:56:24;;;;;;;10.88;7.75;;;;;;;9.33;72.27;95850.69;5046036;28;20032;-75
2021/11/09 03:01:28;;;;;;;13.50;8.43;;;;;;;9.25;72.29;95854.16;5048300;28;20035;-74
2021/11/09 03:11:19;;;;;;;11.50;7.55;;;;;;;9.26;72.05;95862.03;5032401;28;20230;-75
2021/11/09 03:13:45;;;;;;;13.00;8.15;;;;;;;9.30;72.07;95867.06;5048266;28;20040;-76
2021/11/09 03:16:12;;;;;;;12.23;7.95;;;;;;;9.32;72.01;95875.81;5049905;28;20058;-75
2021/11/09 03:18:50;;;;;;;13.13;8.35;;;;;;;9.34;72.02;95877.31;5049055;28;20486;-74
2021/11/09 03:45:34;;;;;;;11.05;7.07;;;;;;;9.08;71.30;95879.97;5049195;28;20349;-75
2021/11/09 03:48:13;;;;;;;11.32;7.28;;;;;;;9.00;72.08;95876.25;5049674;28;20024;-76
2021/11/09 03:50:39;;;;;;;12.68;7.70;;;;;;;8.98;71.72;95880.91;5047970;28;20475;-74
2021/11/09 03:53:14;;;;;;;11.15;7.63;;;;;;;8.98;72.07;95875.56;5048871;28;20104;-74
2021/11/09 03:58:26;;;;;;;12.82;8.10;;;;;;;8.92;72.45;95880.69;5048896;28;20025;-75
2021/11/09 04:00:58;;;;;;;13.75;7.85;;;;;;;8.90;72.10;95872.81;5047752;28;20040;-76
2021/11/09 04:06:03;;;;;;;12.38;7.88;;;;;;;8.88;72.45;95880.19;5048799;28;20118;-75
2021/11/09 04:08:47;;;;;;;11.68;7.57;;;;;;;8.84;72.42;95870.78;5047750;28;20083;-74
2021/11/09 04:14:00;;;;;;;14.77;8.55;;;;;;;8.86;72.13;95871.47;5048684;28;20032;-76
2021/11/09 04:16:38;;;;;;;13.45;7.55;;;;;;;8.78;72.60;95862.41;5028195;28;20561;-76
2021/11/09 04:19:14;;;;;;;14.25;9.30;;;;;;;8.71;72.90;95864.00;5028663;28;21319;-75
2021/11/09 04:22:33;;;;;;;13.57;8.10;;;;;;;8.73;72.91;95875.38;5027688;28;20372;-76
2021/11/09 04:27:39;;;;;;;13.07;8.05;;;;;;;8.73;72.74;95888.75;5027217;28;20112;-77
2021/11/09 05:02:54;;;;;;;15.15;9.32;;;;;;;8.44;73.19;95910.34;5026744;28;20071;-75
2021/11/09 05:10:48;;;;;;;14.48;9.45;;;;;;;8.48;72.89;95941.94;5026530;28;20513;-75
2021/11/09 05:13:14;;;;;;;15.40;9.32;;;;;;;8.53;72.76;95942.34;5027876;28;20025;-77
2021/11/09 05:15:40;;;;;;;16.35;8.82;;;;;;;8.48;72.98;95939.28;5026079;28;20035;-76
2021/11/09 05:18:05;;;;;;;15.13;9.88;;;;;;;8.49;73.14;95935.63;5026384;28;20045;-76
2021/11/09 05:20:31;;;;;;;14.38;9.15;;;;;;;8.53;72.97;95945.03;5026197;28;20033;-76
2021/11/09 05:22:57;;;;;;;15.10;9.23;;;;;;;8.64;72.44;95948.50;5026770;28;20029;-79
2021/11/09 05:25:23;;;;;;;16.52;10.48;;;;;;;8.67;72.44;95953.56;5026362;28;20021;-77
2021/11/09 05:27:48;;;;;;;16.23;9.93;;;;;;;8.70;72.01;95971.13;5027303;28;20504;-76
2021/11/09 05:30:15;;;;;;;14.90;9.38;;;;;;;8.77;71.93;95974.84;5027132;28;20036;-77
2021/11/09 05:32:41;;;;;;;16.17;9.13;;;;;;;8.81;71.95;95960.19;5025815;28;20500;-77
2021/11/09 05:35:07;;;;;;;58.55;36.95;;;;;;;8.93;71.56;95959.97;5025840;28;20021;-76
2021/11/09 05:37:50;;;;;;;1999.90;999.90;;;;;;;8.96;72.11;95973.03;5026899;28;20042;-77
2021/11/09 05:40:16;;;;;;;1999.90;999.90;;;;;;;8.94;72.44;95986.56;5027007;28;20024;-76
2021/11/09 05:42:41;;;;;;;14.23;9.00;;;;;;;8.94;72.79;95981.22;5027190;28;20026;-77
2021/11/09 05:45:09;;;;;;;10.88;7.28;;;;;;;9.04;72.29;95983.81;5026828;28;20030;-76
2021/11/09 05:47:35;;;;;;;14.65;8.18;;;;;;;9.02;72.76;95994.66;5025925;28;20175;-78
2021/11/09 05:50:00;;;;;;;11.57;7.75;;;;;;;9.01;72.78;95992.16;5025243;28;20470;-74
2021/11/09 05:52:26;;;;;;;10.40;5.65;;;;;;;9.01;72.95;95984.94;5025744;28;20033;-78
2021/11/09 05:54:51;;;;;;;14.25;8.73;;;;;;;9.07;72.70;95985.34;5026715;28;20414;-76
2021/11/09 05:57:16;;;;;;;12.70;8.32;;;;;;;9.05;72.69;95995.34;5025194;28;20029;-75
2021/11/09 05:59:42;;;;;;;14.13;8.38;;;;;;;9.06;72.94;96005.06;5025724;28;20022;-75
2021/11/09 06:02:07;;;;;;;15.68;9.45;;;;;;;9.02;73.45;96004.53;5026477;28;20029;-75
2021/11/09 06:04:33;;;;;;;1.85;1.48;;;;;;;9.04;72.96;96002.53;5026751;28;20571;-78
2021/11/09 06:06:58;;;;;;;6.15;3.88;;;;;;;9.08;73.29;96008.41;5025316;28;20022;-75
2021/11/09 06:09:24;;;;;;;6.85;4.13;;;;;;;9.07;72.81;96012.94;5026672;28;20033;-76
2021/11/09 06:11:49;;;;;;;12.20;4.35;;;;;;;9.08;73.10;96024.47;5025051;28;20033;-76
2021/11/09 06:14:15;;;;;;;6.43;4.60;;;;;;;9.12;72.55;96021.34;5026814;28;20021;-76
2021/11/09 06:16:40;;;;;;;14.40;8.52;;;;;;;9.06;73.10;96018.44;5026669;28;20036;-77
2021/11/09 06:19:06;;;;;;;12.85;8.23;;;;;;;9.12;72.79;96023.19;5024989;28;20048;-76
2021/11/09 06:21:32;;;;;;;13.73;8.77;;;;;;;9.18;72.97;96016.38;5026630;28;20033;-77
2021/11/09 06:23:57;;;;;;;11.82;7.75;;;;;;;9.26;71.97;96017.28;5025150;28;20025;-75
2021/11/09 06:26:23;;;;;;;14.50;7.75;;;;;;;9.31;72.61;96018.66;5026350;28;20407;-76
2021/11/09 06:28:49;;;;;;;15.20;9.05;;;;;;;9.38;72.02;96027.75;5024799;28;20044;-76
2021/11/09 06:31:14;;;;;;;13.02;8.43;;;;;;;9.47;71.82;96042.03;5026278;28;20041;-77
2021/11/09 06:33:40;;;;;;;12.00;7.90;;;;;;;9.57;71.04;96036.59;5024113;28;20033;-78
2021/11/09 06:36:05;;;;;;;16.23;9.05;;;;;;;9.63;71.33;96022.56;5031014;28;20021;-74
2021/11/09 06:38:31;;;;;;;13.65;8.35;;;;;;;9.62;70.89;96035.13;5040536;28;20013;-77
2021/11/09 06:40:56;;;;;;;14.20;8.77;;;;;;;9.70;70.64;96042.41;5046338;28;20025;-75
2021/11/09 06:43:22;;;;;;;15.00;9.23;;;;;;;9.67;71.39;96029.31;5044327;28;20032;-77
2021/11/09 06:45:47;;;;;;;13.05;8.73;;;;;;;9.75;70.62;96021.31;5044855;28;20029;-77
2021/11/09 06:48:13;;;;;;;12.13;8.40;;;;;;;9.86;69.67;96032.78;5027955;28;20480;-79
2021/11/09 06:50:38;;;;;;;16.58;8.77;;;;;;;9.90;69.70;96034.13;5044622;28;20075;-77
2021/11/09 06:53:04;;;;;;;12.70;8.82;;;;;;;9.89;69.64;96040.50;5046506;28;20107;-76
2021/11/09 06:55:29;;;;;;;17.05;8.85;;;;;;;9.95;69.58;96041.69;5044073;28;20078;-78
2021/11/09 06:57:55;;;;;;;14.45;9.27;;;;;;;10.00;69.45;96040.25;5045950;28;20032;-77
2021/11/09 07:00:22;;;;;;;15.35;8.35;;;;;;;10.07;69.08;96039.59;5032116;28;20420;-74
2021/11/09 07:02:48;;;;;;;13.82;8.43;;;;;;;10.06;69.01;96038.75;5035094;28;20025;-75
2021/11/09 07:05:13;;;;;;;13.02;8.23;;;;;;;10.03;69.12;96039.06;5034192;28;20048;-76
2021/11/09 07:07:40;;;;;;;15.20;8.27;;;;;;;10.17;68.66;96047.53;5044754;28;20495;-75
2021/11/09 07:10:07;;;;;;;14.88;8.77;;;;;;;10.25;68.85;96060.97;5032648;28;20455;-75
2021/11/09 07:12:33;;;;;;;18.40;9.88;;;;;;;10.27;68.65;96067.84;5032211;28;20076;-75
2021/11/09 07:14:58;;;;;;;15.13;9.02;;;;;;;10.27;68.57;96069.69;5041045;28;20029;-75
2021/11/09 07:17:24;;;;;;;16.90;9.73;;;;;;;10.25;68.45;96069.03;5041160;28;20083;-74
2021/11/09 07:19:52;;;;;;;14.30;8.40;;;;;;;10.26;69.14;96076.91;5043039;28;20024;-75
2021/11/09 07:22:23;;;;;;;20.10;9.68;;;;;;;10.34;69.05;96076.09;5042952;28;20032;-76
2021/11/09 07:24:48;;;;;;;17.95;10.27;;;;;;;10.38;69.18;96080.13;5017015;28;20037;-76
2021/11/09 07:27:14;;;;;;;15.63;9.63;;;;;;;10.41;68.88;96089.72;5042202;28;20478;-76
2021/11/09 07:29:48;;;;;;;17.35;8.82;;;;;;;10.53;68.57;96094.84;5036000;28;20413;-73
2021/11/09 07:32:17;;;;;;;11.52;7.53;;;;;;;10.59;67.52;96102.25;5036906;28;20048;-75
2021/11/09 07:34:43;;;;;;;11.80;7.03;;;;;;;10.60;67.53;96114.66;5039937;28;20033;-75
2021/11/09 07:37:09;;;;;;;9.32;6.32;;;;;;;10.61;66.97;96119.00;5044287;28;20048;-77
2021/11/09 07:39:35;;;;;;;8.70;6.30;;;;;;;10.58;67.32;96122.00;5043752;28;20021;-75
2021/11/09 07:42:02;;;;;;;9.88;6.38;;;;;;;10.55;66.79;96112.44;5042740;28;20094;-75
2021/11/09 07:44:28;;;;;;;8.45;5.90;;;;;;;10.57;66.26;96121.19;5044894;28;20503;-76
2021/11/09 07:46:53;;;;;;;11.50;5.68;;;;;;;10.53;66.81;96132.41;5046251;28;20036;-76
2021/11/09 07:49:19;;;;;;;12.55;6.03;;;;;;;10.47;66.47;96137.38;5049158;28;20446;-78
2021/11/09 07:51:44;;;;;;;12.32;6.35;;;;;;;10.47;66.78;96132.03;5045446;28;20029;-78
2021/11/09 07:54:11;;;;;;;8.60;5.95;;;;;;;10.47;67.13;96141.91;5041764;28;20044;-79
2021/11/09 07:56:37;;;;;;;11.30;6.78;;;;;;;10.48;66.79;96143.56;5003175;28;20033;-77
2021/11/09 08:01:46;;;;;;;12.75;7.00;;;;;;;10.41;66.87;96162.13;5046012;28;20068;-77
2021/11/09 08:04:15;;;;;;;11.70;6.35;;;;;;;10.37;66.84;96177.69;5038847;28;20035;-80
2021/11/09 08:11:53;;;;;;;8.68;5.95;;;;;;;10.35;66.89;96170.81;5046216;28;20044;-78
2021/11/09 08:14:19;;;;;;;9.63;6.10;;;;;;;10.38;67.16;96162.44;5045087;28;20461;-76
2021/11/09 08:16:44;;;;;;;10.88;6.68;;;;;;;10.42;66.93;96171.84;5028338;28;20056;-76
2021/11/09 08:19:11;;;;;;;14.10;6.43;;;;;;;10.51;65.91;96178.16;5046420;28;20024;-76
2021/11/09 08:21:37;;;;;;;12.07;7.15;;;;;;;10.50;66.20;96192.53;5045588;28;20087;-77
2021/11/09 08:24:03;;;;;;;11.80;6.80;;;;;;;10.49;66.13;96191.69;5029888;28;20037;-77
2021/11/09 08:26:28;;;;;;;11.85;6.82;;;;;;;10.50;65.76;96193.38;5046794;28;20108;-78
2021/11/09 08:28:54;;;;;;;12.90;6.35;;;;;;;10.42;65.65;96209.38;5046996;28;20103;-76
2021/11/09 08:31:22;;;;;;;10.90;6.80;;;;;;;10.35;65.89;96202.97;5029503;28;20495;-77
2021/11/09 08:37:09;;;;;;;13.10;7.18;;;;;;;10.31;66.04;96207.81;5047524;28;20039;-77
2021/11/09 08:39:38;;;;;;;11.63;7.18;;;;;;;10.34;65.87;96212.00;5047071;28;20037;-78
2021/11/09 08:44:34;;;;;;;9.15;6.70;;;;;;;10.25;65.83;96228.03;5046237;28;20033;-77
2021/11/09 08:47:01;;;;;;;11.48;6.45;;;;;;;10.23;65.85;96226.50;5046965;28;20029;-77
2021/11/09 08:49:28;;;;;;;11.88;7.20;;;;;;;10.20;65.05;96222.31;5046195;28;20029;-77
2021/11/09 08:51:55;;;;;;;14.15;8.05;;;;;;;10.14;65.05;96220.22;5046963;28;20380;-78
2021/11/09 08:54:36;;;;;;;10.07;7.10;;;;;;;10.06;65.76;96215.63;5046152;28;20029;-80
2021/11/09 09:05:09;;;;;;;14.55;8.15;;;;;;;10.01;64.63;96224.16;5040984;28;20030;-77
2021/11/09 09:07:34;;;;;;;12.50;7.00;;;;;;;10.04;64.63;96214.13;5034672;28;20102;-77
2021/11/09 09:10:00;;;;;;;12.20;6.85;;;;;;;9.98;64.74;96207.53;5037675;28;20451;-77
2021/11/09 09:12:26;;;;;;;11.55;6.68;;;;;;;9.92;64.86;96214.34;5026253;28;20025;-77
2021/11/09 09:14:52;;;;;;;15.13;7.25;;;;;;;9.91;65.08;96218.03;5011719;28;20022;-83
2021/11/09 09:17:18;;;;;;;12.63;7.15;;;;;;;9.95;64.92;96214.03;5018739;28;20048;-80
2021/11/09 09:20:01;;;;;;;14.38;7.10;;;;;;;9.92;64.76;96234.94;5042269;28;20064;-79
2021/11/09 09:23:01;;;;;;;13.00;7.72;;;;;;;9.83;65.28;96228.69;5030794;28;20036;-78
2021/11/09 09:25:42;;;;;;;12.07;6.47;;;;;;;9.87;65.17;96240.75;5018485;28;20038;-77
2021/11/09 09:30:53;;;;;;;11.75;6.93;;;;;;;9.84;64.81;96244.59;5028401;28;20099;-79
2021/11/09 09:52:01;;;;;;;11.95;6.40;;;;;;;9.85;65.02;96234.72;5025306;28;20021;-79
2021/11/09 09:55:40;;;;;;;12.05;7.82;;;;;;;9.56;65.70;96300.88;5027000;28;20033;-80
2021/11/09 09:58:07;;;;;;;12.55;6.85;;;;;;;9.45;66.22;96299.25;5026893;28;20029;-79
2021/11/09 10:00:33;;;;;;;13.23;7.53;;;;;;;9.40;66.43;96301.50;5008940;28;20051;-79
2021/11/09 10:02:59;;;;;;;14.05;8.13;;;;;;;9.30;66.32;96296.22;5026941;28;20496;-80
2021/11/09 10:05:25;;;;;;;12.32;7.50;;;;;;;9.35;66.86;96314.53;5032297;28;20105;-79
2021/11/09 10:07:55;;;;;;;11.88;7.85;;;;;;;9.26;66.60;96317.09;5036694;28;20096;-78
2021/11/09 10:10:29;;;;;;;14.10;7.88;;;;;;;9.19;67.24;96320.50;5027701;28;20025;-75
2021/11/09 10:13:00;;;;;;;16.67;8.18;;;;;;;9.21;66.91;96316.69;5028787;28;20456;-76
2021/11/09 10:15:29;;;;;;;11.27;7.25;;;;;;;9.19;67.14;96317.81;5041266;28;20539;-76
2021/11/09 10:18:03;;;;;;;16.60;8.55;;;;;;;9.10;67.12;96325.75;5044490;28;20398;-77
2021/11/09 10:20:32;;;;;;;13.45;8.18;;;;;;;9.07;67.53;96328.72;5043894;28;20025;-77
2021/11/09 10:23:06;;;;;;;13.40;7.65;;;;;;;9.03;68.17;96333.50;5044604;28;20013;-78
2021/11/09 10:25:32;;;;;;;13.50;8.43;;;;;;;9.06;68.71;96343.06;5045492;28;20078;-78
2021/11/09 10:28:05;;;;;;;15.32;8.02;;;;;;;9.11;69.14;96342.63;5044092;28;20512;-78
2021/11/09 10:30:34;;;;;;;;;;;;;;;9.05;70.51;96346.72;5032358;28;20084;-77
2021/11/09 10:33:00;;;;;;;14.02;8.15;;;;;;;9.03;70.43;96338.00;5043286;28;19912;-76
2021/11/09 10:35:26;;;;;;;11.73;7.63;;;;;;;9.00;71.39;96332.94;5042051;28;20422;-79
2021/11/09 10:37:56;;;;;;;14.80;8.32;;;;;;;8.95;71.65;96344.06;5044075;28;20121;-78
2021/11/09 10:40:27;;;;;;;13.70;8.55;;;;;;;8.94;72.64;96353.09;5043497;28;20029;-76
2021/11/09 10:42:54;;;;;;;22.00;9.05;;;;;;;8.97;73.11;96333.22;5041375;28;20472;-76
2021/11/09 10:45:23;;;;;;;12.48;7.68;;;;;;;8.90;72.78;96333.81;5036450;28;20067;-78
2021/11/09 10:47:53;;;;;;;14.88;8.52;;;;;;;8.94;73.29;96342.41;5033312;28;20479;-78
2021/11/09 10:50:24;;;;;;;13.20;7.88;;;;;;;8.94;73.70;96361.13;5041605;28;20033;-77
2021/11/09 10:53:29;;;;;;;12.80;8.50;;;;;;;8.92;74.23;96363.09;5027130;28;20025;-77
2021/11/09 11:06:27;;;;;;;10.02;6.35;;;;;;;8.67;72.86;96381.44;5044525;28;20571;-76
2021/11/09 11:09:10;;;;;;;13.18;7.18;;;;;;;8.60;73.31;96393.66;5043501;28;20033;-80
2021/11/09 11:11:40;;;;;;;20.05;8.18;;;;;;;8.49;73.78;96394.63;5043862;28;20033;-76
2021/11/09 11:14:05;;;;;;;15.13;7.25;;;;;;;8.49;74.10;96406.19;5043203;28;20029;-78
2021/11/09 11:16:30;;;;;;;14.95;7.20;;;;;;;8.51;74.02;96408.72;5040732;28;20084;-77
2021/11/09 11:18:56;;;;;;;12.65;7.10;;;;;;;8.51;74.18;96409.53;5041752;28;20472;-79
2021/11/09 11:21:26;;;;;;;11.57;7.03;;;;;;;8.46;74.69;96414.47;5034674;28;20459;-77
2021/11/09 11:23:52;;;;;;;8.07;4.78;;;;;;;8.51;72.93;96430.91;5027322;28;20811;-81
2021/11/09 11:26:18;;;;;;;7.88;4.47;;;;;;;8.50;72.62;96407.84;5047251;28;20033;-77
2021/11/09 11:28:45;;;;;;;7.70;4.50;;;;;;;8.56;72.93;96417.16;5048429;28;20025;-77
2021/11/09 11:31:12;;;;;;;6.78;4.47;;;;;;;8.50;72.67;96413.19;5046835;28;20526;-76
2021/11/09 11:33:38;;;;;;;9.95;4.70;;;;;;;8.58;72.75;96433.91;5047235;28;20033;-79
2021/11/09 11:36:03;;;;;;;6.40;4.00;;;;;;;8.60;72.76;96423.09;5041869;28;20055;-79
2021/11/09 11:38:29;;;;;;;7.63;4.20;;;;;;;8.65;73.01;96434.22;5046965;28;20032;-76
2021/11/09 11:40:58;;;;;;;9.63;3.75;;;;;;;8.68;73.24;96431.25;5027220;28;20029;-78
2021/11/09 11:43:42;;;;;;;8.07;4.43;;;;;;;8.70;73.86;96442.66;5040755;28;20029;-77
2021/11/09 11:46:33;;;;;;;5.53;3.50;;;;;;;8.80;71.86;96425.75;5047931;28;20480;-76
2021/11/09 11:49:03;;;;;;;5.70;3.33;;;;;;;8.76;72.07;96425.19;5046038;28;20115;-76
2021/11/09 11:51:36;;;;;;;6.60;2.90;;;;;;;8.69;72.27;96432.09;5047032;28;20481;-78
2021/11/09 11:54:01;;;;;;;5.25;2.88;;;;;;;8.64;72.27;96430.69;5048024;28;20060;-77
2021/11/09 11:56:45;;;;;;;7.70;2.50;;;;;;;8.52;71.65;96440.66;5046391;28;20029;-77
2021/11/09 11:59:22;;;;;;;4.85;2.38;;;;;;;8.50;71.37;96452.44;5048017;28;20090;-76
2021/11/09 12:02:01;;;;;;;4.43;1.95;;;;;;;8.31;71.74;96455.94;5040333;28;20128;-77
2021/11/09 12:04:36;;;;;;;3.65;2.22;;;;;;;8.24;71.91;96440.44;5021310;28;20026;-80
2021/11/09 12:07:08;;;;;;;4.47;2.00;;;;;;;8.14;71.54;96428.91;5033718;28;20104;-80
2021/11/09 12:09:40;;;;;;;9.98;2.10;;;;;;;7.99;72.19;96466.69;5046706;28;20121;-79
2021/11/09 12:12:27;;;;;;;3.30;1.92;;;;;;;7.90;72.33;96449.63;5047589;28;20029;-76
2021/11/09 12:15:00;;;;;;;4.97;2.38;;;;;;;7.81;72.59;96471.81;5046982;28;20036;-78
2021/11/09 12:17:41;;;;;;;;;;;;;;;7.75;72.77;96467.03;5048402;28;20381;-79
2021/11/09 12:20:09;;;;;;;2.95;1.55;;;;;;;7.63;72.64;96485.78;5046481;28;19912;-75
2021/11/09 12:22:37;;;;;;;2.88;1.55;;;;;;;7.62;73.02;96472.56;5044527;28;20036;-76
2021/11/09 12:25:03;;;;;;;4.15;1.83;;;;;;;7.62;72.13;96505.47;5045109;28;20037;-77
2021/11/09 12:27:57;;;;;;;3.35;1.63;;;;;;;7.70;72.80;96515.50;5046308;28;20025;-78
2021/11/09 12:30:32;;;;;;;3.25;1.60;;;;;;;7.78;72.89;96518.34;5046592;28;20033;-83
2021/11/09 12:33:27;;;;;;;3.55;1.95;;;;;;;7.87;72.40;96523.84;5044648;28;20072;-77
2021/11/09 12:36:02;;;;;;;6.00;2.20;;;;;;;7.91;72.73;96515.44;5045917;28;20078;-78
2021/11/09 12:38:45;;;;;;;3.70;2.10;;;;;;;7.97;72.31;96521.22;5047510;28;20033;-78
2021/11/09 12:41:18;;;;;;;4.47;2.17;;;;;;;8.04;72.77;96520.56;5044454;28;20032;-77
2021/11/09 12:43:51;;;;;;;4.68;2.20;;;;;;;8.09;71.81;96536.22;5029189;28;20415;-79
2021/11/09 12:46:26;;;;;;;5.00;2.03;;;;;;;8.14;71.58;96525.94;5046806;28;20021;-78
2021/11/09 12:48:59;;;;;;;3.95;2.33;;;;;;;8.16;72.44;96547.19;5040411;28;20040;-78
2021/11/09 12:51:26;;;;;;;3.80;1.88;;;;;;;8.19;72.18;96570.97;5042008;28;20025;-80
2021/11/09 12:53:53;;;;;;;3.42;2.03;;;;;;;8.20;72.09;96561.13;5042773;28;20025;-79
2021/11/09 12:56:35;;;;;;;3.90;2.28;;;;;;;8.30;71.32;96575.41;5041687;28;20065;-79
2021/11/09 12:59:09;;;;;;;4.05;2.15;;;;;;;8.35;71.14;96583.00;5032177;28;20403;-78
2021/11/09 13:04:20;;;;;;;6.90;1.80;;;;;;;8.32;70.30;96570.75;5037232;28;20415;-78
2021/11/09 13:09:31;;;;;;;5.22;2.53;;;;;;;8.31;70.33;96565.53;5038189;28;20532;-82
2021/11/09 13:11:57;;;;;;;2.85;1.45;;;;;;;8.24;70.46;96558.06;5025830;28;20039;-79
2021/11/09 13:14:31;;;;;;;2.47;1.40;;;;;;;8.24;69.72;96555.38;5033236;28;20604;-78
2021/11/09 13:16:57;;;;;;;2.90;1.50;;;;;;;8.26;70.35;96564.13;5045150;28;20890;-79
2021/11/09 13:19:27;;;;;;;2.97;1.80;;;;;;;8.27;69.70;96576.50;5045257;28;20048;-79
2021/11/09 13:22:08;;;;;;;3.25;1.73;;;;;;;8.29;69.91;96593.25;5044342;28;20029;-79
2021/11/09 13:24:37;;;;;;;2.80;1.70;;;;;;;8.29;69.58;96593.25;5044491;28;20049;-78
2021/11/09 13:27:03;;;;;;;3.95;1.90;;;;;;;8.34;69.46;96589.31;5042962;28;20431;-77
2021/11/09 13:29:28;;;;;;;5.22;1.90;;;;;;;8.31;69.87;96601.13;5043911;28;20044;-77
2021/11/09 13:31:54;;;;;;;3.78;2.10;;;;;;;8.31;70.48;96605.63;5027442;28;20060;-76
2021/11/09 13:34:23;;;;;;;4.95;2.22;;;;;;;8.38;70.01;96604.13;5045557;28;20087;-77
2021/11/09 13:36:55;;;;;;;4.25;2.47;;;;;;;8.45;69.81;96596.41;5040092;28;20025;-77
2021/11/09 13:39:20;;;;;;;3.72;2.17;;;;;;;8.43;69.64;96593.03;5036826;28;20033;-75
2021/11/09 13:41:46;;;;;;;4.20;2.20;;;;;;;8.43;70.00;96599.19;5045820;28;20392;-76
2021/11/09 13:44:12;;;;;;;5.50;1.60;;;;;;;8.44;69.09;96602.72;5027595;28;20427;-76
2021/11/09 13:46:38;;;;;;;4.63;2.10;;;;;;;8.37;69.36;96605.94;5045389;28;20029;-76
2021/11/09 13:49:11;;;;;;;2.88;1.88;;;;;;;8.40;69.83;96616.38;5024418;28;20619;-79
2021/11/09 13:51:48;;;;;;;3.80;1.85;;;;;;;8.44;69.53;96627.66;5043789;28;20021;-76
2021/11/09 13:54:24;;;;;;;2.67;1.63;;;;;;;8.56;69.06;96631.09;5044197;28;20029;-78
2021/11/09 13:56:51;;;;;;;2.40;1.67;;;;;;;8.55;68.71;96639.25;5040252;28;20044;-78
2021/11/09 13:59:23;;;;;;;4.70;1.95;;;;;;;8.58;68.37;96638.97;5037117;28;20466;-80
2021/11/09 14:05:22;;;;;;;14.75;2.38;;;;;;;8.48;68.56;96658.47;5027055;28;20031;-79
2021/11/09 14:17:41;;;;;;;2.63;1.90;;;;;;;8.23;69.72;96679.31;5038785;28;20558;-76
2021/11/09 14:20:11;;;;;;;2.85;1.70;;;;;;;8.23;69.73;96684.66;5044196;28;20025;-76
2021/11/09 14:22:36;;;;;;;4.75;2.28;;;;;;;8.22;70.01;96684.78;5045395;28;20080;-75